sensor_id;sensor_type;location;lat;lon;timestamp;P1;durP1;ratioP1;P2;durP2;ratioP2
23617;SDS011;18207;32.078;34.818;2023-01-28T00:01:28;2.25;;;2.05;;
23617;SDS011;18207;32.078;34.818;2023-01-28T00:03:58;2.03;;;1.92;;
23617;SDS011;18207;32.078;34.818;2023-01-28T00:06:29;2.15;;;1.88;;
23617;SDS011;18207;32.078;34.818;2023-01-28T00:08:59;2.10;;;2.00;;
23617;SDS011;18207;32.078;34.818;2023-01-28T00:11:30;2.35;;;2.15;;
23617;SDS011;18207;32.078;34.818;2023-01-28T00:14:00;2.20;;;2.10;;
23617;SDS011;18207;32.078;34.818;2023-01-28T00:16:31;2.22;;;2.05;;
23617;SDS011;18207;32.078;34.818;2023-01-28T00:19:01;3.10;;;2.10;;
23617;SDS011;18207;32.078;34.818;2023-01-28T00:21:32;2.00;;;1.90;;
23617;SDS011;18207;32.078;34.818;2023-01-28T00:24:03;2.25;;;2.13;;
23617;SDS011;18207;32.078;34.818;2023-01-28T00:26:35;2.40;;;2.13;;
23617;SDS011;18207;32.078;34.818;2023-01-28T00:29:05;2.28;;;2.08;;
23617;SDS011;18207;32.078;34.818;2023-01-28T00:31:36;2.30;;;2.10;;
23617;SDS011;18207;32.078;34.818;2023-01-28T00:34:07;2.53;;;2.00;;
23617;SDS011;18207;32.078;34.818;2023-01-28T00:36:39;2.22;;;2.10;;
23617;SDS011;18207;32.078;34.818;2023-01-28T00:39:10;2.67;;;1.88;;
23617;SDS011;18207;32.078;34.818;2023-01-28T00:41:43;2.08;;;1.98;;
23617;SDS011;18207;32.078;34.818;2023-01-28T00:44:13;2.47;;;1.95;;
23617;SDS011;18207;32.078;34.818;2023-01-28T00:46:43;2.22;;;2.10;;
23617;SDS011;18207;32.078;34.818;2023-01-28T00:49:13;2.25;;;2.05;;
23617;SDS011;18207;32.078;34.818;2023-01-28T00:51:45;2.53;;;2.33;;
23617;SDS011;18207;32.078;34.818;2023-01-28T00:54:16;2.00;;;1.90;;
23617;SDS011;18207;32.078;34.818;2023-01-28T00:56:47;2.00;;;1.90;;
23617;SDS011;18207;32.078;34.818;2023-01-28T00:59:19;2.35;;;1.95;;
23617;SDS011;18207;32.078;34.818;2023-01-28T01:01:49;2.25;;;2.05;;
23617;SDS011;18207;32.078;34.818;2023-01-28T01:04:20;2.10;;;2.00;;
23617;SDS011;18207;32.078;34.818;2023-01-28T01:07:03;2.30;;;2.10;;
23617;SDS011;18207;32.078;34.818;2023-01-28T01:09:33;2.28;;;2.10;;
23617;SDS011;18207;32.078;34.818;2023-01-28T01:12:03;2.63;;;2.20;;
23617;SDS011;18207;32.078;34.818;2023-01-28T01:14:34;1.85;;;1.75;;
23617;SDS011;18207;32.078;34.818;2023-01-28T01:17:04;2.22;;;2.00;;
23617;SDS011;18207;32.078;34.818;2023-01-28T01:19:35;1.95;;;1.75;;
23617;SDS011;18207;32.078;34.818;2023-01-28T01:22:08;2.10;;;1.90;;
23617;SDS011;18207;32.078;34.818;2023-01-28T01:24:38;2.00;;;1.90;;
23617;SDS011;18207;32.078;34.818;2023-01-28T01:27:08;2.08;;;1.98;;
23617;SDS011;18207;32.078;34.818;2023-01-28T01:29:38;2.05;;;1.90;;
23617;SDS011;18207;32.078;34.818;2023-01-28T01:32:08;2.30;;;2.03;;
23617;SDS011;18207;32.078;34.818;2023-01-28T01:34:38;2.08;;;1.90;;
23617;SDS011;18207;32.078;34.818;2023-01-28T01:37:13;2.00;;;1.90;;
23617;SDS011;18207;32.078;34.818;2023-01-28T01:39:43;1.88;;;1.77;;
23617;SDS011;18207;32.078;34.818;2023-01-28T01:42:13;1.95;;;1.77;;
23617;SDS011;18207;32.078;34.818;2023-01-28T01:44:55;2.17;;;2.05;;
23617;SDS011;18207;32.078;34.818;2023-01-28T01:47:31;1.90;;;1.80;;
23617;SDS011;18207;32.078;34.818;2023-01-28T01:50:11;1.77;;;1.67;;
23617;SDS011;18207;32.078;34.818;2023-01-28T01:52:53;1.80;;;1.65;;
23617;SDS011;18207;32.078;34.818;2023-01-28T01:55:29;2.00;;;1.70;;
23617;SDS011;18207;32.078;34.818;2023-01-28T01:58:05;2.20;;;1.70;;
23617;SDS011;18207;32.078;34.818;2023-01-28T02:00:39;2.13;;;2.00;;
23617;SDS011;18207;32.078;34.818;2023-01-28T02:03:10;1.77;;;1.67;;
23617;SDS011;18207;32.078;34.818;2023-01-28T02:05:41;2.00;;;1.90;;
23617;SDS011;18207;32.078;34.818;2023-01-28T02:08:14;2.42;;;1.83;;
23617;SDS011;18207;32.078;34.818;2023-01-28T02:10:52;1.75;;;1.65;;
23617;SDS011;18207;32.078;34.818;2023-01-28T02:13:29;1.70;;;1.60;;
23617;SDS011;18207;32.078;34.818;2023-01-28T02:16:07;1.80;;;1.70;;
23617;SDS011;18207;32.078;34.818;2023-01-28T02:18:39;1.70;;;1.60;;
23617;SDS011;18207;32.078;34.818;2023-01-28T02:21:15;2.67;;;1.70;;
23617;SDS011;18207;32.078;34.818;2023-01-28T02:24:40;1.60;;;1.50;;
23617;SDS011;18207;32.078;34.818;2023-01-28T02:31:05;1.60;;;1.50;;
23617;SDS011;18207;32.078;34.818;2023-01-28T02:33:45;1.70;;;1.60;;
23617;SDS011;18207;32.078;34.818;2023-01-28T02:36:28;1.83;;;1.73;;
23617;SDS011;18207;32.078;34.818;2023-01-28T02:39:07;2.03;;;1.77;;
23617;SDS011;18207;32.078;34.818;2023-01-28T02:41:44;1.95;;;1.73;;
23617;SDS011;18207;32.078;34.818;2023-01-28T02:44:23;1.70;;;1.60;;
23617;SDS011;18207;32.078;34.818;2023-01-28T02:46:54;1.88;;;1.77;;
23617;SDS011;18207;32.078;34.818;2023-01-28T02:49:42;1.75;;;1.65;;
23617;SDS011;18207;32.078;34.818;2023-01-28T02:52:35;2.03;;;1.73;;
23617;SDS011;18207;32.078;34.818;2023-01-28T02:55:41;1.80;;;1.70;;
23617;SDS011;18207;32.078;34.818;2023-01-28T02:58:23;1.90;;;1.80;;
23617;SDS011;18207;32.078;34.818;2023-01-28T03:01:09;2.00;;;1.85;;
23617;SDS011;18207;32.078;34.818;2023-01-28T03:03:54;1.70;;;1.60;;
23617;SDS011;18207;32.078;34.818;2023-01-28T03:06:32;1.60;;;1.50;;
23617;SDS011;18207;32.078;34.818;2023-01-28T03:09:08;1.88;;;1.77;;
23617;SDS011;18207;32.078;34.818;2023-01-28T03:11:53;1.83;;;1.65;;
23617;SDS011;18207;32.078;34.818;2023-01-28T03:14:44;2.42;;;1.90;;
23617;SDS011;18207;32.078;34.818;2023-01-28T03:17:38;1.90;;;1.70;;
23617;SDS011;18207;32.078;34.818;2023-01-28T03:20:32;2.28;;;1.52;;
23617;SDS011;18207;32.078;34.818;2023-01-28T03:23:27;1.67;;;1.58;;
23617;SDS011;18207;32.078;34.818;2023-01-28T03:26:22;1.80;;;1.70;;
23617;SDS011;18207;32.078;34.818;2023-01-28T03:29:15;1.80;;;1.70;;
23617;SDS011;18207;32.078;34.818;2023-01-28T03:32:07;2.05;;;1.40;;
23617;SDS011;18207;32.078;34.818;2023-01-28T03:34:58;1.73;;;1.63;;
23617;SDS011;18207;32.078;34.818;2023-01-28T03:37:45;2.42;;;2.00;;
23617;SDS011;18207;32.078;34.818;2023-01-28T03:40:16;2.10;;;1.90;;
23617;SDS011;18207;32.078;34.818;2023-01-28T03:42:47;2.38;;;1.80;;
23617;SDS011;18207;32.078;34.818;2023-01-28T03:45:18;1.77;;;1.67;;
23617;SDS011;18207;32.078;34.818;2023-01-28T03:47:47;1.80;;;1.70;;
23617;SDS011;18207;32.078;34.818;2023-01-28T03:50:21;1.73;;;1.63;;
23617;SDS011;18207;32.078;34.818;2023-01-28T03:52:51;1.90;;;1.80;;
23617;SDS011;18207;32.078;34.818;2023-01-28T03:55:41;2.28;;;1.58;;
23617;SDS011;18207;32.078;34.818;2023-01-28T03:58:13;1.77;;;1.67;;
23617;SDS011;18207;32.078;34.818;2023-01-28T04:00:44;1.98;;;1.77;;
23617;SDS011;18207;32.078;34.818;2023-01-28T04:03:16;2.65;;;1.83;;
23617;SDS011;18207;32.078;34.818;2023-01-28T04:05:58;1.98;;;1.88;;
23617;SDS011;18207;32.078;34.818;2023-01-28T04:08:30;1.83;;;1.60;;
23617;SDS011;18207;32.078;34.818;2023-01-28T04:11:01;1.63;;;1.52;;
23617;SDS011;18207;32.078;34.818;2023-01-28T04:13:41;1.60;;;1.50;;
23617;SDS011;18207;32.078;34.818;2023-01-28T04:16:12;1.88;;;1.77;;
23617;SDS011;18207;32.078;34.818;2023-01-28T04:18:45;1.73;;;1.63;;
23617;SDS011;18207;32.078;34.818;2023-01-28T04:21:17;1.75;;;1.65;;
23617;SDS011;18207;32.078;34.818;2023-01-28T04:23:47;1.63;;;1.52;;
23617;SDS011;18207;32.078;34.818;2023-01-28T04:26:18;1.92;;;1.80;;
23617;SDS011;18207;32.078;34.818;2023-01-28T04:28:48;1.55;;;1.45;;
23617;SDS011;18207;32.078;34.818;2023-01-28T04:31:18;2.17;;;1.75;;
23617;SDS011;18207;32.078;34.818;2023-01-28T04:33:50;1.70;;;1.60;;
23617;SDS011;18207;32.078;34.818;2023-01-28T04:36:22;1.83;;;1.73;;
23617;SDS011;18207;32.078;34.818;2023-01-28T04:38:53;1.90;;;1.80;;
23617;SDS011;18207;32.078;34.818;2023-01-28T04:41:23;1.95;;;1.70;;
23617;SDS011;18207;32.078;34.818;2023-01-28T04:43:53;1.90;;;1.80;;
23617;SDS011;18207;32.078;34.818;2023-01-28T04:46:23;1.95;;;1.85;;
23617;SDS011;18207;32.078;34.818;2023-01-28T04:48:54;1.77;;;1.67;;
23617;SDS011;18207;32.078;34.818;2023-01-28T04:51:25;1.90;;;1.80;;
23617;SDS011;18207;32.078;34.818;2023-01-28T04:53:55;1.85;;;1.75;;
23617;SDS011;18207;32.078;34.818;2023-01-28T04:56:25;1.70;;;1.60;;
23617;SDS011;18207;32.078;34.818;2023-01-28T04:58:55;1.98;;;1.70;;
23617;SDS011;18207;32.078;34.818;2023-01-28T05:01:26;1.80;;;1.70;;
23617;SDS011;18207;32.078;34.818;2023-01-28T05:03:56;1.92;;;1.77;;
23617;SDS011;18207;32.078;34.818;2023-01-28T05:06:32;1.95;;;1.85;;
23617;SDS011;18207;32.078;34.818;2023-01-28T05:09:02;1.83;;;1.73;;
23617;SDS011;18207;32.078;34.818;2023-01-28T05:11:33;2.38;;;1.90;;
23617;SDS011;18207;32.078;34.818;2023-01-28T05:14:04;1.63;;;1.52;;
23617;SDS011;18207;32.078;34.818;2023-01-28T05:16:35;2.38;;;1.80;;
23617;SDS011;18207;32.078;34.818;2023-01-28T05:19:04;1.83;;;1.73;;
23617;SDS011;18207;32.078;34.818;2023-01-28T05:21:36;1.83;;;1.73;;
23617;SDS011;18207;32.078;34.818;2023-01-28T05:24:06;1.83;;;1.70;;
23617;SDS011;18207;32.078;34.818;2023-01-28T05:26:36;1.80;;;1.70;;
23617;SDS011;18207;32.078;34.818;2023-01-28T05:29:06;3.25;;;1.90;;
23617;SDS011;18207;32.078;34.818;2023-01-28T05:31:37;1.80;;;1.67;;
23617;SDS011;18207;32.078;34.818;2023-01-28T05:34:07;1.80;;;1.70;;
23617;SDS011;18207;32.078;34.818;2023-01-28T05:36:39;2.00;;;1.80;;
23617;SDS011;18207;32.078;34.818;2023-01-28T05:39:09;1.90;;;1.80;;
23617;SDS011;18207;32.078;34.818;2023-01-28T05:41:39;1.80;;;1.70;;
23617;SDS011;18207;32.078;34.818;2023-01-28T05:44:10;1.70;;;1.60;;
23617;SDS011;18207;32.078;34.818;2023-01-28T05:46:39;1.52;;;1.42;;
23617;SDS011;18207;32.078;34.818;2023-01-28T05:49:12;1.70;;;1.60;;
23617;SDS011;18207;32.078;34.818;2023-01-28T05:51:45;2.03;;;1.90;;
23617;SDS011;18207;32.078;34.818;2023-01-28T05:54:15;2.05;;;1.88;;
23617;SDS011;18207;32.078;34.818;2023-01-28T05:56:45;1.70;;;1.60;;
23617;SDS011;18207;32.078;34.818;2023-01-28T05:59:16;1.60;;;1.50;;
23617;SDS011;18207;32.078;34.818;2023-01-28T06:01:46;1.70;;;1.60;;
23617;SDS011;18207;32.078;34.818;2023-01-28T06:04:16;1.60;;;1.50;;
23617;SDS011;18207;32.078;34.818;2023-01-28T06:06:48;1.90;;;1.80;;
23617;SDS011;18207;32.078;34.818;2023-01-28T06:09:18;2.17;;;1.98;;
23617;SDS011;18207;32.078;34.818;2023-01-28T06:11:48;1.75;;;1.60;;
23617;SDS011;18207;32.078;34.818;2023-01-28T06:14:19;1.83;;;1.73;;
23617;SDS011;18207;32.078;34.818;2023-01-28T06:16:49;2.55;;;1.90;;
23617;SDS011;18207;32.078;34.818;2023-01-28T06:19:19;2.90;;;1.80;;
23617;SDS011;18207;32.078;34.818;2023-01-28T06:21:51;1.80;;;1.70;;
23617;SDS011;18207;32.078;34.818;2023-01-28T06:24:21;1.90;;;1.80;;
23617;SDS011;18207;32.078;34.818;2023-01-28T06:26:51;1.98;;;1.88;;
23617;SDS011;18207;32.078;34.818;2023-01-28T06:29:22;1.75;;;1.65;;
23617;SDS011;18207;32.078;34.818;2023-01-28T06:31:52;1.90;;;1.80;;
23617;SDS011;18207;32.078;34.818;2023-01-28T06:34:22;1.70;;;1.60;;
23617;SDS011;18207;32.078;34.818;2023-01-28T06:36:54;1.98;;;1.80;;
23617;SDS011;18207;32.078;34.818;2023-01-28T06:39:24;1.65;;;1.55;;
23617;SDS011;18207;32.078;34.818;2023-01-28T06:41:57;1.88;;;1.77;;
23617;SDS011;18207;32.078;34.818;2023-01-28T06:44:28;1.67;;;1.58;;
23617;SDS011;18207;32.078;34.818;2023-01-28T06:46:58;1.80;;;1.70;;
23617;SDS011;18207;32.078;34.818;2023-01-28T06:49:28;2.00;;;1.90;;
23617;SDS011;18207;32.078;34.818;2023-01-28T06:52:01;1.77;;;1.67;;
23617;SDS011;18207;32.078;34.818;2023-01-28T06:54:32;1.90;;;1.80;;
23617;SDS011;18207;32.078;34.818;2023-01-28T06:57:03;2.33;;;1.88;;
23617;SDS011;18207;32.078;34.818;2023-01-28T06:59:33;3.05;;;2.00;;
23617;SDS011;18207;32.078;34.818;2023-01-28T07:02:03;2.30;;;2.10;;
23617;SDS011;18207;32.078;34.818;2023-01-28T07:04:33;2.40;;;2.13;;
23617;SDS011;18207;32.078;34.818;2023-01-28T07:07:05;2.72;;;2.53;;
23617;SDS011;18207;32.078;34.818;2023-01-28T07:09:36;2.20;;;2.10;;
23617;SDS011;18207;32.078;34.818;2023-01-28T07:12:06;3.33;;;2.15;;
23617;SDS011;18207;32.078;34.818;2023-01-28T07:14:36;3.00;;;2.40;;
23617;SDS011;18207;32.078;34.818;2023-01-28T07:17:07;2.42;;;1.98;;
23617;SDS011;18207;32.078;34.818;2023-01-28T07:19:37;2.53;;;1.92;;
23617;SDS011;18207;32.078;34.818;2023-01-28T07:22:09;2.25;;;2.05;;
23617;SDS011;18207;32.078;34.818;2023-01-28T07:24:39;2.33;;;2.17;;
23617;SDS011;18207;32.078;34.818;2023-01-28T07:27:09;2.45;;;2.20;;
23617;SDS011;18207;32.078;34.818;2023-01-28T07:29:39;2.13;;;1.92;;
23617;SDS011;18207;32.078;34.818;2023-01-28T07:32:10;4.07;;;1.90;;
23617;SDS011;18207;32.078;34.818;2023-01-28T07:34:40;2.60;;;2.40;;
23617;SDS011;18207;32.078;34.818;2023-01-28T07:37:12;2.53;;;2.33;;
23617;SDS011;18207;32.078;34.818;2023-01-28T07:39:43;2.55;;;2.35;;
23617;SDS011;18207;32.078;34.818;2023-01-28T07:42:14;2.45;;;2.28;;
23617;SDS011;18207;32.078;34.818;2023-01-28T07:44:44;2.40;;;2.20;;
23617;SDS011;18207;32.078;34.818;2023-01-28T07:47:15;2.60;;;2.40;;
23617;SDS011;18207;32.078;34.818;2023-01-28T07:49:45;2.38;;;2.20;;
23617;SDS011;18207;32.078;34.818;2023-01-28T07:52:17;2.15;;;2.03;;
23617;SDS011;18207;32.078;34.818;2023-01-28T07:54:47;1.95;;;1.85;;
23617;SDS011;18207;32.078;34.818;2023-01-28T07:57:17;2.10;;;1.95;;
23617;SDS011;18207;32.078;34.818;2023-01-28T07:59:49;2.10;;;2.00;;
23617;SDS011;18207;32.078;34.818;2023-01-28T08:02:19;2.17;;;2.00;;
23617;SDS011;18207;32.078;34.818;2023-01-28T08:04:50;2.25;;;2.03;;
23617;SDS011;18207;32.078;34.818;2023-01-28T08:07:22;2.17;;;1.98;;
23617;SDS011;18207;32.078;34.818;2023-01-28T08:09:53;2.30;;;2.10;;
23617;SDS011;18207;32.078;34.818;2023-01-28T08:12:23;2.28;;;2.00;;
23617;SDS011;18207;32.078;34.818;2023-01-28T08:14:53;1.92;;;1.80;;
23617;SDS011;18207;32.078;34.818;2023-01-28T08:17:23;1.92;;;1.83;;
23617;SDS011;18207;32.078;34.818;2023-01-28T08:19:54;2.08;;;1.98;;
23617;SDS011;18207;32.078;34.818;2023-01-28T08:22:26;1.92;;;1.83;;
23617;SDS011;18207;32.078;34.818;2023-01-28T08:24:57;1.90;;;1.80;;
23617;SDS011;18207;32.078;34.818;2023-01-28T08:27:27;2.08;;;1.88;;
23617;SDS011;18207;32.078;34.818;2023-01-28T08:29:57;2.75;;;1.98;;
23617;SDS011;18207;32.078;34.818;2023-01-28T08:32:27;2.03;;;1.92;;
23617;SDS011;18207;32.078;34.818;2023-01-28T08:34:58;1.92;;;1.83;;
23617;SDS011;18207;32.078;34.818;2023-01-28T08:37:30;2.30;;;2.10;;
23617;SDS011;18207;32.078;34.818;2023-01-28T08:40:00;1.83;;;1.73;;
23617;SDS011;18207;32.078;34.818;2023-01-28T08:42:31;1.95;;;1.77;;
23617;SDS011;18207;32.078;34.818;2023-01-28T08:45:02;2.05;;;1.95;;
23617;SDS011;18207;32.078;34.818;2023-01-28T08:47:32;3.95;;;1.88;;
23617;SDS011;18207;32.078;34.818;2023-01-28T08:50:03;1.90;;;1.80;;
23617;SDS011;18207;32.078;34.818;2023-01-28T08:52:37;1.98;;;1.83;;
23617;SDS011;18207;32.078;34.818;2023-01-28T08:55:10;2.67;;;1.70;;
23617;SDS011;18207;32.078;34.818;2023-01-28T08:57:40;1.88;;;1.77;;
23617;SDS011;18207;32.078;34.818;2023-01-28T09:00:11;2.85;;;1.98;;
23617;SDS011;18207;32.078;34.818;2023-01-28T09:02:42;2.05;;;1.95;;
23617;SDS011;18207;32.078;34.818;2023-01-28T09:05:13;2.53;;;2.00;;
23617;SDS011;18207;32.078;34.818;2023-01-28T09:07:45;2.50;;;1.90;;
23617;SDS011;18207;32.078;34.818;2023-01-28T09:10:17;2.13;;;1.80;;
23617;SDS011;18207;32.078;34.818;2023-01-28T09:12:48;2.75;;;1.80;;
23617;SDS011;18207;32.078;34.818;2023-01-28T09:15:18;2.80;;;2.05;;
23617;SDS011;18207;32.078;34.818;2023-01-28T09:17:48;2.22;;;2.03;;
23617;SDS011;18207;32.078;34.818;2023-01-28T09:20:24;2.63;;;1.95;;
23617;SDS011;18207;32.078;34.818;2023-01-28T09:22:57;2.40;;;2.00;;
23617;SDS011;18207;32.078;34.818;2023-01-28T09:25:28;2.30;;;2.10;;
23617;SDS011;18207;32.078;34.818;2023-01-28T09:27:58;2.58;;;2.03;;
23617;SDS011;18207;32.078;34.818;2023-01-28T09:30:28;4.38;;;1.95;;
23617;SDS011;18207;32.078;34.818;2023-01-28T09:33:02;3.00;;;1.95;;
23617;SDS011;18207;32.078;34.818;2023-01-28T09:35:32;1.95;;;1.85;;
23617;SDS011;18207;32.078;34.818;2023-01-28T09:38:04;2.20;;;2.00;;
23617;SDS011;18207;32.078;34.818;2023-01-28T09:40:35;2.75;;;2.03;;
23617;SDS011;18207;32.078;34.818;2023-01-28T09:43:17;3.05;;;2.00;;
23617;SDS011;18207;32.078;34.818;2023-01-28T09:46:04;2.45;;;2.20;;
23617;SDS011;18207;32.078;34.818;2023-01-28T09:48:40;2.15;;;1.95;;
23617;SDS011;18207;32.078;34.818;2023-01-28T09:51:27;2.67;;;1.88;;
23617;SDS011;18207;32.078;34.818;2023-01-28T09:54:11;2.20;;;1.83;;
23617;SDS011;18207;32.078;34.818;2023-01-28T09:56:55;2.22;;;1.85;;
23617;SDS011;18207;32.078;34.818;2023-01-28T09:59:34;2.80;;;1.90;;
23617;SDS011;18207;32.078;34.818;2023-01-28T10:02:13;2.08;;;1.90;;
23617;SDS011;18207;32.078;34.818;2023-01-28T10:05:14;2.70;;;1.95;;
23617;SDS011;18207;32.078;34.818;2023-01-28T10:07:56;2.05;;;1.63;;
23617;SDS011;18207;32.078;34.818;2023-01-28T10:10:46;3.50;;;1.90;;
23617;SDS011;18207;32.078;34.818;2023-01-28T10:13:26;4.25;;;1.83;;
23617;SDS011;18207;32.078;34.818;2023-01-28T10:16:11;2.60;;;2.00;;
23617;SDS011;18207;32.078;34.818;2023-01-28T10:18:51;2.28;;;1.85;;
23617;SDS011;18207;32.078;34.818;2023-01-28T10:21:30;2.05;;;1.83;;
23617;SDS011;18207;32.078;34.818;2023-01-28T10:24:09;2.40;;;2.20;;
23617;SDS011;18207;32.078;34.818;2023-01-28T10:26:48;4.82;;;2.00;;
23617;SDS011;18207;32.078;34.818;2023-01-28T10:29:20;3.58;;;2.05;;
23617;SDS011;18207;32.078;34.818;2023-01-28T10:31:56;2.55;;;1.83;;
23617;SDS011;18207;32.078;34.818;2023-01-28T10:34:33;2.47;;;2.10;;
23617;SDS011;18207;32.078;34.818;2023-01-28T10:37:05;2.53;;;2.03;;
23617;SDS011;18207;32.078;34.818;2023-01-28T10:39:36;2.70;;;2.10;;
23617;SDS011;18207;32.078;34.818;2023-01-28T10:42:15;2.53;;;1.98;;
23617;SDS011;18207;32.078;34.818;2023-01-28T10:44:55;2.92;;;2.10;;
23617;SDS011;18207;32.078;34.818;2023-01-28T10:47:30;2.80;;;2.20;;
23617;SDS011;18207;32.078;34.818;2023-01-28T10:50:09;3.47;;;2.17;;
23617;SDS011;18207;32.078;34.818;2023-01-28T10:52:52;2.60;;;2.40;;
23617;SDS011;18207;32.078;34.818;2023-01-28T10:55:24;2.47;;;2.28;;
23617;SDS011;18207;32.078;34.818;2023-01-28T10:58:04;2.47;;;2.17;;
23617;SDS011;18207;32.078;34.818;2023-01-28T11:00:50;2.90;;;2.30;;
23617;SDS011;18207;32.078;34.818;2023-01-28T11:03:22;3.83;;;2.30;;
23617;SDS011;18207;32.078;34.818;2023-01-28T11:05:56;2.65;;;2.28;;
23617;SDS011;18207;32.078;34.818;2023-01-28T11:08:27;3.45;;;2.20;;
23617;SDS011;18207;32.078;34.818;2023-01-28T11:11:12;3.33;;;2.17;;
23617;SDS011;18207;32.078;34.818;2023-01-28T11:13:49;4.00;;;2.33;;
23617;SDS011;18207;32.078;34.818;2023-01-28T11:16:24;2.58;;;2.10;;
23617;SDS011;18207;32.078;34.818;2023-01-28T11:18:56;2.30;;;2.10;;
23617;SDS011;18207;32.078;34.818;2023-01-28T11:21:33;3.17;;;2.42;;
23617;SDS011;18207;32.078;34.818;2023-01-28T11:24:04;2.65;;;2.35;;
23617;SDS011;18207;32.078;34.818;2023-01-28T11:26:46;4.32;;;2.42;;
23617;SDS011;18207;32.078;34.818;2023-01-28T11:29:24;3.05;;;2.45;;
23617;SDS011;18207;32.078;34.818;2023-01-28T11:31:58;4.50;;;2.95;;
23617;SDS011;18207;32.078;34.818;2023-01-28T11:34:29;3.65;;;2.70;;
23617;SDS011;18207;32.078;34.818;2023-01-28T11:37:03;4.43;;;2.75;;
23617;SDS011;18207;32.078;34.818;2023-01-28T11:39:42;4.50;;;2.42;;
23617;SDS011;18207;32.078;34.818;2023-01-28T11:42:15;4.40;;;2.78;;
23617;SDS011;18207;32.078;34.818;2023-01-28T11:44:50;5.18;;;2.80;;
23617;SDS011;18207;32.078;34.818;2023-01-28T11:47:25;4.10;;;2.75;;
23617;SDS011;18207;32.078;34.818;2023-01-28T11:50:17;2.95;;;2.30;;
23617;SDS011;18207;32.078;34.818;2023-01-28T11:53:13;2.83;;;2.45;;
23617;SDS011;18207;32.078;34.818;2023-01-28T11:59:28;3.03;;;2.30;;
23617;SDS011;18207;32.078;34.818;2023-01-28T12:02:41;2.38;;;2.17;;
23617;SDS011;18207;32.078;34.818;2023-01-28T12:05:32;2.63;;;2.20;;
23617;SDS011;18207;32.078;34.818;2023-01-28T12:08:19;2.75;;;2.30;;
23617;SDS011;18207;32.078;34.818;2023-01-28T12:10:57;2.72;;;2.47;;
23617;SDS011;18207;32.078;34.818;2023-01-28T12:13:52;4.40;;;2.45;;
23617;SDS011;18207;32.078;34.818;2023-01-28T12:16:39;3.67;;;2.25;;
23617;SDS011;18207;32.078;34.818;2023-01-28T12:19:55;2.40;;;2.20;;
23617;SDS011;18207;32.078;34.818;2023-01-28T12:22:51;3.15;;;2.33;;
23617;SDS011;18207;32.078;34.818;2023-01-28T12:25:49;2.88;;;2.58;;
23617;SDS011;18207;32.078;34.818;2023-01-28T12:28:51;2.65;;;2.38;;
23617;SDS011;18207;32.078;34.818;2023-01-28T12:31:47;2.95;;;2.25;;
23617;SDS011;18207;32.078;34.818;2023-01-28T12:34:34;2.58;;;2.38;;
23617;SDS011;18207;32.078;34.818;2023-01-28T12:37:33;3.60;;;2.53;;
23617;SDS011;18207;32.078;34.818;2023-01-28T12:40:27;3.53;;;2.28;;
23617;SDS011;18207;32.078;34.818;2023-01-28T12:43:25;2.65;;;2.33;;
23617;SDS011;18207;32.078;34.818;2023-01-28T12:46:30;2.53;;;2.33;;
23617;SDS011;18207;32.078;34.818;2023-01-28T12:49:12;3.08;;;2.40;;
23617;SDS011;18207;32.078;34.818;2023-01-28T12:51:53;2.45;;;2.25;;
23617;SDS011;18207;32.078;34.818;2023-01-28T12:54:33;2.92;;;2.17;;
23617;SDS011;18207;32.078;34.818;2023-01-28T12:57:12;2.25;;;2.05;;
23617;SDS011;18207;32.078;34.818;2023-01-28T12:59:50;2.55;;;2.30;;
23617;SDS011;18207;32.078;34.818;2023-01-28T13:02:31;2.42;;;2.22;;
23617;SDS011;18207;32.078;34.818;2023-01-28T13:05:10;2.28;;;2.08;;
23617;SDS011;18207;32.078;34.818;2023-01-28T13:07:46;2.25;;;2.05;;
23617;SDS011;18207;32.078;34.818;2023-01-28T13:10:25;2.38;;;2.17;;
23617;SDS011;18207;32.078;34.818;2023-01-28T13:13:02;2.92;;;2.20;;
23617;SDS011;18207;32.078;34.818;2023-01-28T13:15:35;4.10;;;2.60;;
23617;SDS011;18207;32.078;34.818;2023-01-28T13:18:30;2.95;;;2.35;;
23617;SDS011;18207;32.078;34.818;2023-01-28T13:21:13;3.08;;;2.67;;
23617;SDS011;18207;32.078;34.818;2023-01-28T13:24:17;4.35;;;2.50;;
23617;SDS011;18207;32.078;34.818;2023-01-28T13:27:08;4.38;;;2.72;;
23617;SDS011;18207;32.078;34.818;2023-01-28T13:29:58;4.07;;;2.60;;
23617;SDS011;18207;32.078;34.818;2023-01-28T13:32:33;2.90;;;2.55;;
23617;SDS011;18207;32.078;34.818;2023-01-28T13:35:05;2.95;;;2.65;;
23617;SDS011;18207;32.078;34.818;2023-01-28T13:37:57;3.17;;;2.88;;
23617;SDS011;18207;32.078;34.818;2023-01-28T13:40:37;4.05;;;2.70;;
23617;SDS011;18207;32.078;34.818;2023-01-28T13:43:26;5.53;;;2.90;;
23617;SDS011;18207;32.078;34.818;2023-01-28T13:46:06;3.85;;;2.47;;
23617;SDS011;18207;32.078;34.818;2023-01-28T13:48:40;2.97;;;2.70;;
23617;SDS011;18207;32.078;34.818;2023-01-28T13:51:17;3.72;;;2.50;;
23617;SDS011;18207;32.078;34.818;2023-01-28T13:53:52;4.35;;;2.75;;
23617;SDS011;18207;32.078;34.818;2023-01-28T13:56:33;3.38;;;2.80;;
23617;SDS011;18207;32.078;34.818;2023-01-28T13:59:20;4.15;;;2.95;;
23617;SDS011;18207;32.078;34.818;2023-01-28T14:08:31;3.72;;;2.78;;
23617;SDS011;18207;32.078;34.818;2023-01-28T14:12:03;3.15;;;2.75;;
23617;SDS011;18207;32.078;34.818;2023-01-28T14:18:21;3.03;;;2.33;;
23617;SDS011;18207;32.078;34.818;2023-01-28T14:20:55;3.10;;;2.33;;
23617;SDS011;18207;32.078;34.818;2023-01-28T14:23:31;4.45;;;2.50;;
23617;SDS011;18207;32.078;34.818;2023-01-28T14:26:08;3.33;;;2.35;;
23617;SDS011;18207;32.078;34.818;2023-01-28T14:28:56;3.85;;;2.58;;
23617;SDS011;18207;32.078;34.818;2023-01-28T14:31:45;4.35;;;2.47;;
23617;SDS011;18207;32.078;34.818;2023-01-28T14:34:18;4.65;;;2.50;;
23617;SDS011;18207;32.078;34.818;2023-01-28T14:36:56;3.90;;;2.38;;
23617;SDS011;18207;32.078;34.818;2023-01-28T14:39:33;3.70;;;2.40;;
23617;SDS011;18207;32.078;34.818;2023-01-28T14:42:15;6.30;;;2.45;;
23617;SDS011;18207;32.078;34.818;2023-01-28T14:44:57;4.03;;;2.60;;
23617;SDS011;18207;32.078;34.818;2023-01-28T14:47:49;6.18;;;2.67;;
23617;SDS011;18207;32.078;34.818;2023-01-28T14:54:15;4.70;;;2.08;;
23617;SDS011;18207;32.078;34.818;2023-01-28T14:57:23;6.90;;;2.53;;
23617;SDS011;18207;32.078;34.818;2023-01-28T15:00:17;3.78;;;2.17;;
23617;SDS011;18207;32.078;34.818;2023-01-28T15:02:52;3.03;;;2.30;;
23617;SDS011;18207;32.078;34.818;2023-01-28T15:05:23;4.78;;;2.30;;
23617;SDS011;18207;32.078;34.818;2023-01-28T15:07:56;5.55;;;2.67;;
23617;SDS011;18207;32.078;34.818;2023-01-28T15:10:26;4.75;;;2.65;;
23617;SDS011;18207;32.078;34.818;2023-01-28T15:13:04;3.60;;;2.22;;
23617;SDS011;18207;32.078;34.818;2023-01-28T15:15:40;4.07;;;2.67;;
23617;SDS011;18207;32.078;34.818;2023-01-28T15:18:18;4.13;;;2.33;;
23617;SDS011;18207;32.078;34.818;2023-01-28T15:20:58;4.20;;;2.47;;
23617;SDS011;18207;32.078;34.818;2023-01-28T15:23:31;4.20;;;2.20;;
23617;SDS011;18207;32.078;34.818;2023-01-28T15:26:04;4.03;;;2.30;;
23617;SDS011;18207;32.078;34.818;2023-01-28T15:28:41;5.75;;;2.30;;
23617;SDS011;18207;32.078;34.818;2023-01-28T15:34:09;2.97;;;2.22;;
23617;SDS011;18207;32.078;34.818;2023-01-28T15:36:44;2.55;;;2.25;;
23617;SDS011;18207;32.078;34.818;2023-01-28T15:39:16;3.90;;;2.50;;
23617;SDS011;18207;32.078;34.818;2023-01-28T15:41:50;2.67;;;2.20;;
23617;SDS011;18207;32.078;34.818;2023-01-28T15:44:26;4.70;;;2.30;;
23617;SDS011;18207;32.078;34.818;2023-01-28T15:47:12;5.13;;;2.47;;
23617;SDS011;18207;32.078;34.818;2023-01-28T15:49:46;3.60;;;2.40;;
23617;SDS011;18207;32.078;34.818;2023-01-28T15:52:27;4.10;;;2.47;;